sensor_id;sensor_type;location;lat;lon;timestamp;pressure;altitude;pressure_sealevel;temperature;humidity
38225;BME280;24025;48.138;11.428;2023-08-20T00:01:31;95896.91;;;23.68;61.50
38225;BME280;24025;48.138;11.428;2023-08-20T00:04:03;95895.69;;;23.69;60.90
38225;BME280;24025;48.138;11.428;2023-08-20T00:06:35;95894.94;;;23.68;61.28
38225;BME280;24025;48.138;11.428;2023-08-20T00:09:07;95893.19;;;23.62;61.81
38225;BME280;24025;48.138;11.428;2023-08-20T00:11:39;95894.28;;;23.64;61.49
38225;BME280;24025;48.138;11.428;2023-08-20T00:14:15;95887.31;;;23.63;61.26
38225;BME280;24025;48.138;11.428;2023-08-20T00:16:47;95888.97;;;23.61;61.98
38225;BME280;24025;48.138;11.428;2023-08-20T00:19:19;95902.19;;;23.59;62.13
38225;BME280;24025;48.138;11.428;2023-08-20T00:21:51;95900.59;;;23.61;61.71
38225;BME280;24025;48.138;11.428;2023-08-20T00:24:23;95902.88;;;23.63;61.37
38225;BME280;24025;48.138;11.428;2023-08-20T00:26:54;95908.34;;;23.63;60.34
38225;BME280;24025;48.138;11.428;2023-08-20T00:29:25;95908.09;;;23.57;61.39
38225;BME280;24025;48.138;11.428;2023-08-20T00:31:57;95900.03;;;23.54;61.50
38225;BME280;24025;48.138;11.428;2023-08-20T00:34:29;95897.00;;;23.52;61.59
38225;BME280;24025;48.138;11.428;2023-08-20T00:37:01;95902.09;;;23.50;61.76
38225;BME280;24025;48.138;11.428;2023-08-20T00:39:33;95901.69;;;23.51;61.36
38225;BME280;24025;48.138;11.428;2023-08-20T00:42:05;95904.50;;;23.48;61.49
38225;BME280;24025;48.138;11.428;2023-08-20T00:44:37;95900.84;;;23.41;62.55
38225;BME280;24025;48.138;11.428;2023-08-20T00:47:08;95902.88;;;23.37;62.35
38225;BME280;24025;48.138;11.428;2023-08-20T00:49:41;95904.97;;;23.33;63.03
38225;BME280;24025;48.138;11.428;2023-08-20T00:52:14;95899.31;;;23.28;62.96
38225;BME280;24025;48.138;11.428;2023-08-20T00:54:47;95903.53;;;23.29;62.06
38225;BME280;24025;48.138;11.428;2023-08-20T00:57:19;95901.59;;;23.29;62.54
38225;BME280;24025;48.138;11.428;2023-08-20T00:59:51;95900.19;;;23.25;63.15
38225;BME280;24025;48.138;11.428;2023-08-20T01:02:22;95903.88;;;23.18;63.29
38225;BME280;24025;48.138;11.428;2023-08-20T01:04:54;95900.94;;;23.12;63.59
38225;BME280;24025;48.138;11.428;2023-08-20T01:08:09;95910.84;;;23.06;63.62
38225;BME280;24025;48.138;11.428;2023-08-20T01:10:57;95906.38;;;23.00;63.70
38225;BME280;24025;48.138;11.428;2023-08-20T01:13:31;95904.50;;;22.97;63.40
38225;BME280;24025;48.138;11.428;2023-08-20T01:16:02;95911.38;;;22.88;64.16
38225;BME280;24025;48.138;11.428;2023-08-20T01:18:34;95911.88;;;22.83;64.83
38225;BME280;24025;48.138;11.428;2023-08-20T01:21:31;95917.06;;;22.78;65.49
38225;BME280;24025;48.138;11.428;2023-08-20T01:30:07;95924.56;;;22.74;65.11
38225;BME280;24025;48.138;11.428;2023-08-20T01:32:39;95919.66;;;22.69;65.91
38225;BME280;24025;48.138;11.428;2023-08-20T01:35:13;95920.84;;;22.68;65.47
38225;BME280;24025;48.138;11.428;2023-08-20T01:37:45;95915.97;;;22.63;65.81
38225;BME280;24025;48.138;11.428;2023-08-20T01:40:17;95919.00;;;22.65;65.53
38225;BME280;24025;48.138;11.428;2023-08-20T01:42:48;95913.00;;;22.57;66.08
38225;BME280;24025;48.138;11.428;2023-08-20T01:45:20;95916.66;;;22.50;65.99
38225;BME280;24025;48.138;11.428;2023-08-20T01:47:53;95919.19;;;22.45;66.22
38225;BME280;24025;48.138;11.428;2023-08-20T01:50:24;95921.53;;;22.43;66.45
38225;BME280;24025;48.138;11.428;2023-08-20T01:52:56;95927.50;;;22.38;66.47
38225;BME280;24025;48.138;11.428;2023-08-20T01:55:27;95930.31;;;22.34;66.50
38225;BME280;24025;48.138;11.428;2023-08-20T01:58:03;95917.16;;;22.32;66.12
38225;BME280;24025;48.138;11.428;2023-08-20T02:00:34;95926.94;;;22.30;66.57
38225;BME280;24025;48.138;11.428;2023-08-20T02:03:06;95923.22;;;22.24;66.52
38225;BME280;24025;48.138;11.428;2023-08-20T02:05:38;95925.94;;;22.24;66.42
38225;BME280;24025;48.138;11.428;2023-08-20T02:08:09;95925.94;;;22.24;65.71
38225;BME280;24025;48.138;11.428;2023-08-20T02:10:41;95929.25;;;22.15;66.11
38225;BME280;24025;48.138;11.428;2023-08-20T02:13:13;95926.97;;;22.14;66.40
38225;BME280;24025;48.138;11.428;2023-08-20T02:15:44;95929.03;;;22.10;66.41
38225;BME280;24025;48.138;11.428;2023-08-20T02:18:16;95922.47;;;22.07;66.88
38225;BME280;24025;48.138;11.428;2023-08-20T02:20:48;95929.50;;;22.04;67.42
38225;BME280;24025;48.138;11.428;2023-08-20T02:23:19;95918.81;;;21.97;67.39
38225;BME280;24025;48.138;11.428;2023-08-20T02:25:51;95922.06;;;21.92;67.13
38225;BME280;24025;48.138;11.428;2023-08-20T02:28:23;95922.56;;;21.87;66.72
38225;BME280;24025;48.138;11.428;2023-08-20T02:30:54;95924.03;;;21.92;66.45
38225;BME280;24025;48.138;11.428;2023-08-20T02:33:29;95921.03;;;21.86;66.72
38225;BME280;24025;48.138;11.428;2023-08-20T02:36:02;95921.53;;;21.81;67.04
38225;BME280;24025;48.138;11.428;2023-08-20T02:38:34;95926.75;;;21.75;67.02
38225;BME280;24025;48.138;11.428;2023-08-20T02:41:06;95927.25;;;21.70;67.63
38225;BME280;24025;48.138;11.428;2023-08-20T02:43:38;95929.19;;;21.70;67.28
38225;BME280;24025;48.138;11.428;2023-08-20T02:46:09;95923.09;;;21.66;67.28
38225;BME280;24025;48.138;11.428;2023-08-20T02:48:41;95930.97;;;21.60;67.50
38225;BME280;24025;48.138;11.428;2023-08-20T02:51:13;95929.03;;;21.61;67.52
38225;BME280;24025;48.138;11.428;2023-08-20T02:53:45;95923.34;;;21.55;68.40
38225;BME280;24025;48.138;11.428;2023-08-20T02:56:16;95932.34;;;21.52;68.40
38225;BME280;24025;48.138;11.428;2023-08-20T02:58:48;95923.53;;;21.48;68.40
38225;BME280;24025;48.138;11.428;2023-08-20T03:01:24;95931.72;;;21.44;68.41
38225;BME280;24025;48.138;11.428;2023-08-20T03:03:56;95934.53;;;21.41;68.46
38225;BME280;24025;48.138;11.428;2023-08-20T03:06:28;95934.13;;;21.42;68.87
38225;BME280;24025;48.138;11.428;2023-08-20T03:09:00;95939.19;;;21.40;68.23
38225;BME280;24025;48.138;11.428;2023-08-20T03:11:31;95931.06;;;21.40;67.77
38225;BME280;24025;48.138;11.428;2023-08-20T03:14:03;95938.50;;;21.36;68.74
38225;BME280;24025;48.138;11.428;2023-08-20T03:16:34;95932.75;;;21.34;68.67
38225;BME280;24025;48.138;11.428;2023-08-20T03:19:06;95930.13;;;21.31;68.79
38225;BME280;24025;48.138;11.428;2023-08-20T03:21:38;95929.75;;;21.29;68.29
38225;BME280;24025;48.138;11.428;2023-08-20T03:24:09;95931.72;;;21.28;68.82
38225;BME280;24025;48.138;11.428;2023-08-20T03:26:41;95940.34;;;21.23;68.88
38225;BME280;24025;48.138;11.428;2023-08-20T03:29:12;95942.78;;;21.17;68.87
38225;BME280;24025;48.138;11.428;2023-08-20T03:31:44;95942.78;;;21.17;69.14
38225;BME280;24025;48.138;11.428;2023-08-20T03:34:15;95945.00;;;21.23;68.24
38225;BME280;24025;48.138;11.428;2023-08-20T03:36:47;95950.47;;;21.19;67.53
38225;BME280;24025;48.138;11.428;2023-08-20T03:39:19;95944.81;;;21.13;67.67
38225;BME280;24025;48.138;11.428;2023-08-20T03:41:52;95952.53;;;21.15;67.79
38225;BME280;24025;48.138;11.428;2023-08-20T03:44:24;95955.72;;;21.10;68.86
38225;BME280;24025;48.138;11.428;2023-08-20T03:46:55;95963.53;;;21.08;68.42
38225;BME280;24025;48.138;11.428;2023-08-20T03:49:27;95957.75;;;21.06;68.73
38225;BME280;24025;48.138;11.428;2023-08-20T03:51:58;95959.00;;;21.01;68.40
38225;BME280;24025;48.138;11.428;2023-08-20T03:54:33;95967.56;;;21.00;68.66
38225;BME280;24025;48.138;11.428;2023-08-20T03:57:04;95962.91;;;21.00;68.20
38225;BME280;24025;48.138;11.428;2023-08-20T03:59:36;95975.22;;;21.05;67.58
38225;BME280;24025;48.138;11.428;2023-08-20T04:02:08;95973.84;;;20.97;67.81
38225;BME280;24025;48.138;11.428;2023-08-20T04:04:39;95978.91;;;20.95;67.78
38225;BME280;24025;48.138;11.428;2023-08-20T04:07:11;95978.63;;;20.89;68.67
38225;BME280;24025;48.138;11.428;2023-08-20T04:09:43;95975.63;;;20.83;69.07
38225;BME280;24025;48.138;11.428;2023-08-20T04:12:14;95969.81;;;20.85;68.37
38225;BME280;24025;48.138;11.428;2023-08-20T04:14:46;95969.53;;;20.79;69.11
38225;BME280;24025;48.138;11.428;2023-08-20T04:17:18;95969.25;;;20.74;69.43
38225;BME280;24025;48.138;11.428;2023-08-20T04:19:50;95976.63;;;20.73;69.77
38225;BME280;24025;48.138;11.428;2023-08-20T04:22:21;95972.03;;;20.70;69.94
38225;BME280;24025;48.138;11.428;2023-08-20T04:24:53;95975.56;;;20.67;70.37
38225;BME280;24025;48.138;11.428;2023-08-20T04:27:24;95976.69;;;20.70;69.84
38225;BME280;24025;48.138;11.428;2023-08-20T04:29:56;95978.97;;;20.71;69.65
38225;BME280;24025;48.138;11.428;2023-08-20T04:32:27;95973.97;;;20.70;70.25
38225;BME280;24025;48.138;11.428;2023-08-20T04:34:59;95975.22;;;20.65;70.47
38225;BME280;24025;48.138;11.428;2023-08-20T04:37:31;95974.47;;;20.64;70.32
38225;BME280;24025;48.138;11.428;2023-08-20T04:40:03;95975.63;;;20.63;70.75
38225;BME280;24025;48.138;11.428;2023-08-20T04:42:39;95978.00;;;20.61;70.76
38225;BME280;24025;48.138;11.428;2023-08-20T04:45:10;95976.41;;;20.64;70.56
38225;BME280;24025;48.138;11.428;2023-08-20T04:47:42;95989.53;;;20.65;70.70
38225;BME280;24025;48.138;11.428;2023-08-20T04:50:14;95984.97;;;20.62;70.40
38225;BME280;24025;48.138;11.428;2023-08-20T04:52:45;95990.72;;;20.64;70.58
38225;BME280;24025;48.138;11.428;2023-08-20T04:55:17;95989.47;;;20.69;70.70
38225;BME280;24025;48.138;11.428;2023-08-20T04:57:49;95986.69;;;20.73;70.22
38225;BME280;24025;48.138;11.428;2023-08-20T05:00:22;95991.69;;;20.74;69.90
38225;BME280;24025;48.138;11.428;2023-08-20T05:02:53;95991.78;;;20.71;70.92
38225;BME280;24025;48.138;11.428;2023-08-20T05:05:27;95996.44;;;20.70;70.49
38225;BME280;24025;48.138;11.428;2023-08-20T05:07:59;95984.47;;;20.68;71.11
38225;BME280;24025;48.138;11.428;2023-08-20T05:10:30;95981.69;;;20.71;70.99
38225;BME280;24025;48.138;11.428;2023-08-20T05:13:03;95985.47;;;20.77;70.54
38225;BME280;24025;48.138;11.428;2023-08-20T05:15:35;95983.50;;;20.78;69.86
38225;BME280;24025;48.138;11.428;2023-08-20T05:18:06;95987.66;;;20.82;70.10
38225;BME280;24025;48.138;11.428;2023-08-20T05:20:39;95993.44;;;20.84;70.86
38225;BME280;24025;48.138;11.428;2023-08-20T05:23:11;95990.56;;;20.91;70.13
38225;BME280;24025;48.138;11.428;2023-08-20T05:25:43;95991.97;;;21.00;69.79
38225;BME280;24025;48.138;11.428;2023-08-20T05:28:14;95989.78;;;21.11;68.79
38225;BME280;24025;48.138;11.428;2023-08-20T05:30:53;95993.41;;;21.24;68.65
38225;BME280;24025;48.138;11.428;2023-08-20T05:33:25;95990.47;;;21.35;68.65
38225;BME280;24025;48.138;11.428;2023-08-20T05:35:57;95984.47;;;21.43;68.80
38225;BME280;24025;48.138;11.428;2023-08-20T05:38:29;95988.13;;;21.53;67.88
38225;BME280;24025;48.138;11.428;2023-08-20T05:41:01;95990.97;;;21.66;67.95
38225;BME280;24025;48.138;11.428;2023-08-20T05:43:32;95986.13;;;21.73;67.30
38225;BME280;24025;48.138;11.428;2023-08-20T05:46:04;95981.72;;;21.80;66.90
38225;BME280;24025;48.138;11.428;2023-08-20T05:48:36;95985.03;;;21.87;66.21
38225;BME280;24025;48.138;11.428;2023-08-20T05:51:07;95984.75;;;21.98;65.49
38225;BME280;24025;48.138;11.428;2023-08-20T05:53:39;95981.56;;;22.19;65.25
38225;BME280;24025;48.138;11.428;2023-08-20T05:56:11;95983.25;;;22.58;62.58
38225;BME280;24025;48.138;11.428;2023-08-20T05:58:42;95980.06;;;23.18;60.13
38225;BME280;24025;48.138;11.428;2023-08-20T06:01:14;95973.31;;;23.48;59.61
38225;BME280;24025;48.138;11.428;2023-08-20T06:03:45;95982.06;;;23.43;59.56
38225;BME280;24025;48.138;11.428;2023-08-20T06:06:17;95981.50;;;23.35;59.19
38225;BME280;24025;48.138;11.428;2023-08-20T06:08:48;95982.47;;;23.29;58.32
38225;BME280;24025;48.138;11.428;2023-08-20T06:11:38;95987.78;;;23.20;57.95
38225;BME280;24025;48.138;11.428;2023-08-20T06:14:09;95991.91;;;23.11;58.59
38225;BME280;24025;48.138;11.428;2023-08-20T06:16:41;95991.34;;;23.04;58.21
38225;BME280;24025;48.138;11.428;2023-08-20T06:19:13;95997.78;;;22.97;56.99
38225;BME280;24025;48.138;11.428;2023-08-20T06:21:44;95999.16;;;22.89;57.53
38225;BME280;24025;48.138;11.428;2023-08-20T06:24:16;95995.69;;;22.88;57.99
38225;BME280;24025;48.138;11.428;2023-08-20T06:26:47;96001.13;;;22.88;58.31
38225;BME280;24025;48.138;11.428;2023-08-20T06:29:19;95999.56;;;22.87;57.73
38225;BME280;24025;48.138;11.428;2023-08-20T06:31:53;96004.81;;;22.95;57.50
38225;BME280;24025;48.138;11.428;2023-08-20T06:34:24;96003.88;;;23.01;57.79
38225;BME280;24025;48.138;11.428;2023-08-20T06:36:56;96010.84;;;23.02;57.53
38225;BME280;24025;48.138;11.428;2023-08-20T06:39:27;96008.03;;;23.06;57.14
38225;BME280;24025;48.138;11.428;2023-08-20T06:41:59;96010.19;;;23.11;56.50
38225;BME280;24025;48.138;11.428;2023-08-20T06:44:31;96003.69;;;23.21;56.80
38225;BME280;24025;48.138;11.428;2023-08-20T06:47:02;96003.47;;;23.28;56.45
38225;BME280;24025;48.138;11.428;2023-08-20T06:49:34;96006.00;;;23.35;56.86
38225;BME280;24025;48.138;11.428;2023-08-20T06:52:05;96008.41;;;23.46;56.62
38225;BME280;24025;48.138;11.428;2023-08-20T06:54:37;96008.63;;;23.52;56.08
38225;BME280;24025;48.138;11.428;2023-08-20T06:57:09;96009.53;;;23.61;56.10
38225;BME280;24025;48.138;11.428;2023-08-20T06:59:40;95999.94;;;23.69;55.62
38225;BME280;24025;48.138;11.428;2023-08-20T07:02:14;96000.06;;;23.79;56.25
38225;BME280;24025;48.138;11.428;2023-08-20T07:04:46;96007.13;;;23.89;55.40
38225;BME280;24025;48.138;11.428;2023-08-20T07:07:17;96004.50;;;23.98;55.51
38225;BME280;24025;48.138;11.428;2023-08-20T07:09:49;96007.44;;;24.04;54.65
38225;BME280;24025;48.138;11.428;2023-08-20T07:12:20;96009.50;;;24.12;54.34
38225;BME280;24025;48.138;11.428;2023-08-20T07:14:52;96004.56;;;24.20;54.82
38225;BME280;24025;48.138;11.428;2023-08-20T07:17:23;96007.81;;;24.27;54.83
38225;BME280;24025;48.138;11.428;2023-08-20T07:19:55;96008.38;;;24.35;55.01
38225;BME280;24025;48.138;11.428;2023-08-20T07:22:27;96017.97;;;24.40;54.44
38225;BME280;24025;48.138;11.428;2023-08-20T07:24:58;96014.22;;;24.46;54.24
38225;BME280;24025;48.138;11.428;2023-08-20T07:27:30;96017.47;;;24.54;53.93
38225;BME280;24025;48.138;11.428;2023-08-20T07:30:01;96021.91;;;24.61;53.03
38225;BME280;24025;48.138;11.428;2023-08-20T07:32:34;96026.06;;;24.65;52.86
38225;BME280;24025;48.138;11.428;2023-08-20T07:35:05;96026.25;;;24.71;51.99
38225;BME280;24025;48.138;11.428;2023-08-20T07:37:42;96023.59;;;24.80;52.02
38225;BME280;24025;48.138;11.428;2023-08-20T07:40:13;96033.94;;;24.85;50.94
38225;BME280;24025;48.138;11.428;2023-08-20T07:42:46;96027.91;;;24.90;50.61
38225;BME280;24025;48.138;11.428;2023-08-20T07:45:18;96033.00;;;25.01;51.05
38225;BME280;24025;48.138;11.428;2023-08-20T07:47:50;96033.84;;;25.10;51.28
38225;BME280;24025;48.138;11.428;2023-08-20T07:50:21;96034.34;;;25.18;50.80
38225;BME280;24025;48.138;11.428;2023-08-20T07:52:53;96032.44;;;25.28;50.88
38225;BME280;24025;48.138;11.428;2023-08-20T07:55:25;96037.50;;;25.38;50.84
38225;BME280;24025;48.138;11.428;2023-08-20T07:57:56;96033.31;;;25.47;50.50
38225;BME280;24025;48.138;11.428;2023-08-20T08:00:28;96039.56;;;25.56;50.47
38225;BME280;24025;48.138;11.428;2023-08-20T08:02:59;96035.66;;;25.66;49.75
38225;BME280;24025;48.138;11.428;2023-08-20T08:05:31;96034.38;;;25.71;47.97
38225;BME280;24025;48.138;11.428;2023-08-20T08:08:03;96033.19;;;25.81;49.06
38225;BME280;24025;48.138;11.428;2023-08-20T08:10:34;96033.53;;;25.92;48.28
38225;BME280;24025;48.138;11.428;2023-08-20T08:13:07;96036.28;;;26.02;47.23
38225;BME280;24025;48.138;11.428;2023-08-20T08:15:41;96032.06;;;26.10;46.38
38225;BME280;24025;48.138;11.428;2023-08-20T08:18:13;96043.31;;;26.21;48.00
38225;BME280;24025;48.138;11.428;2023-08-20T08:20:45;96036.97;;;26.24;46.26
38225;BME280;24025;48.138;11.428;2023-08-20T08:23:16;96034.84;;;26.37;47.76
38225;BME280;24025;48.138;11.428;2023-08-20T08:25:48;96039.91;;;26.48;47.72
38225;BME280;24025;48.138;11.428;2023-08-20T08:28:20;96039.44;;;26.59;46.49
38225;BME280;24025;48.138;11.428;2023-08-20T08:30:51;96039.16;;;26.66;46.99
38225;BME280;24025;48.138;11.428;2023-08-20T08:33:23;96037.63;;;26.74;46.81
38225;BME280;24025;48.138;11.428;2023-08-20T08:35:55;96039.31;;;26.90;46.98
38225;BME280;24025;48.138;11.428;2023-08-20T08:38:26;96044.22;;;27.04;45.39
38225;BME280;24025;48.138;11.428;2023-08-20T08:40:58;96034.28;;;27.16;44.47
38225;BME280;24025;48.138;11.428;2023-08-20T08:43:30;96032.88;;;27.29;44.94
38225;BME280;24025;48.138;11.428;2023-08-20T08:46:06;96032.88;;;27.38;42.92
38225;BME280;24025;48.138;11.428;2023-08-20T08:48:40;96032.41;;;27.49;43.98
38225;BME280;24025;48.138;11.428;2023-08-20T08:51:12;96031.19;;;27.50;43.02
38225;BME280;24025;48.138;11.428;2023-08-20T08:53:46;96029.00;;;27.63;43.77
38225;BME280;24025;48.138;11.428;2023-08-20T08:56:17;96030.16;;;27.81;43.93
38225;BME280;24025;48.138;11.428;2023-08-20T08:58:49;96029.38;;;27.89;41.63
38225;BME280;24025;48.138;11.428;2023-08-20T09:01:21;96030.41;;;28.01;41.57
38225;BME280;24025;48.138;11.428;2023-08-20T09:03:52;96028.06;;;28.09;40.11
38225;BME280;24025;48.138;11.428;2023-08-20T09:06:24;96026.63;;;28.22;41.52
38225;BME280;24025;48.138;11.428;2023-08-20T09:09:04;96031.03;;;28.29;41.00
38225;BME280;24025;48.138;11.428;2023-08-20T09:11:36;96032.00;;;28.41;40.45
38225;BME280;24025;48.138;11.428;2023-08-20T09:14:08;96035.28;;;28.54;39.63
38225;BME280;24025;48.138;11.428;2023-08-20T09:16:39;96036.81;;;28.70;39.22
38225;BME280;24025;48.138;11.428;2023-08-20T09:19:11;96032.63;;;28.84;39.04
38225;BME280;24025;48.138;11.428;2023-08-20T09:21:45;96031.13;;;28.97;39.50
38225;BME280;24025;48.138;11.428;2023-08-20T09:24:26;96036.66;;;29.12;39.24
38225;BME280;24025;48.138;11.428;2023-08-20T09:26:59;96035.81;;;29.21;37.91
38225;BME280;24025;48.138;11.428;2023-08-20T09:29:51;96039.06;;;29.34;37.76
38225;BME280;24025;48.138;11.428;2023-08-20T09:32:24;96042.63;;;29.40;38.22
38225;BME280;24025;48.138;11.428;2023-08-20T09:34:57;96039.16;;;29.54;37.61
38225;BME280;24025;48.138;11.428;2023-08-20T09:37:28;96040.84;;;29.67;37.27
38225;BME280;24025;48.138;11.428;2023-08-20T09:40:00;96044.72;;;29.75;36.93
38225;BME280;24025;48.138;11.428;2023-08-20T09:42:32;96041.38;;;29.85;37.27
38225;BME280;24025;48.138;11.428;2023-08-20T09:45:05;96041.47;;;29.91;37.00
38225;BME280;24025;48.138;11.428;2023-08-20T09:47:39;96043.56;;;29.96;34.43
38225;BME280;24025;48.138;11.428;2023-08-20T09:50:13;96045.09;;;29.97;36.08
38225;BME280;24025;48.138;11.428;2023-08-20T09:53:08;96049.34;;;30.13;36.20
38225;BME280;24025;48.138;11.428;2023-08-20T09:55:43;96056.78;;;30.27;35.37
38225;BME280;24025;48.138;11.428;2023-08-20T09:58:16;96052.75;;;30.43;36.39
38225;BME280;24025;48.138;11.428;2023-08-20T10:00:50;96056.25;;;30.43;34.09
38225;BME280;24025;48.138;11.428;2023-08-20T10:03:22;96046.25;;;30.46;34.24
38225;BME280;24025;48.138;11.428;2023-08-20T10:05:56;96045.25;;;30.43;32.25
38225;BME280;24025;48.138;11.428;2023-08-20T10:08:30;96043.66;;;30.57;33.91
38225;BME280;24025;48.138;11.428;2023-08-20T10:11:01;96043.13;;;30.73;34.56
38225;BME280;24025;48.138;11.428;2023-08-20T10:13:33;96049.03;;;30.87;32.92
38225;BME280;24025;48.138;11.428;2023-08-20T10:16:05;96048.47;;;31.03;34.59
38225;BME280;24025;48.138;11.428;2023-08-20T10:18:37;96046.03;;;30.85;33.61
38225;BME280;24025;48.138;11.428;2023-08-20T10:21:08;96045.28;;;31.10;34.60
38225;BME280;24025;48.138;11.428;2023-08-20T10:23:41;96039.44;;;31.23;34.00
38225;BME280;24025;48.138;11.428;2023-08-20T10:26:15;96034.28;;;31.36;33.60
38225;BME280;24025;48.138;11.428;2023-08-20T10:28:48;96042.41;;;31.45;33.83
38225;BME280;24025;48.138;11.428;2023-08-20T10:31:25;96032.72;;;31.55;33.44
38225;BME280;24025;48.138;11.428;2023-08-20T10:33:57;96042.06;;;31.69;33.63
38225;BME280;24025;48.138;11.428;2023-08-20T10:36:29;96044.94;;;31.80;33.28
38225;BME280;24025;48.138;11.428;2023-08-20T10:39:05;96042.50;;;31.88;33.06
38225;BME280;24025;48.138;11.428;2023-08-20T10:41:37;96038.72;;;31.85;32.22
38225;BME280;24025;48.138;11.428;2023-08-20T10:44:08;96035.78;;;31.95;32.49
38225;BME280;24025;48.138;11.428;2023-08-20T10:46:49;96029.84;;;32.07;32.27
38225;BME280;24025;48.138;11.428;2023-08-20T10:49:21;96036.56;;;32.01;31.34
38225;BME280;24025;48.138;11.428;2023-08-20T10:51:53;96030.06;;;32.04;31.56
38225;BME280;24025;48.138;11.428;2023-08-20T10:54:28;96029.19;;;32.29;32.83
38225;BME280;24025;48.138;11.428;2023-08-20T10:56:59;96033.03;;;32.37;31.69
38225;BME280;24025;48.138;11.428;2023-08-20T10:59:32;96036.56;;;32.38;29.81
38225;BME280;24025;48.138;11.428;2023-08-20T11:02:11;96030.09;;;32.52;29.40
38225;BME280;24025;48.138;11.428;2023-08-20T11:04:46;96037.44;;;32.66;29.69
38225;BME280;24025;48.138;11.428;2023-08-20T11:07:18;96028.19;;;32.81;30.26
38225;BME280;24025;48.138;11.428;2023-08-20T11:09:50;96022.72;;;32.92;28.27
38225;BME280;24025;48.138;11.428;2023-08-20T11:12:22;96033.03;;;32.97;28.33
38225;BME280;24025;48.138;11.428;2023-08-20T11:15:00;96024.28;;;33.21;29.49
38225;BME280;24025;48.138;11.428;2023-08-20T11:17:31;96025.31;;;33.35;28.68
38225;BME280;24025;48.138;11.428;2023-08-20T11:20:04;96021.34;;;33.41;28.86
38225;BME280;24025;48.138;11.428;2023-08-20T11:22:39;96020.56;;;33.46;28.24
38225;BME280;24025;48.138;11.428;2023-08-20T11:25:12;96016.53;;;33.64;28.08
38225;BME280;24025;48.138;11.428;2023-08-20T11:27:44;96023.06;;;33.72;28.44
38225;BME280;24025;48.138;11.428;2023-08-20T11:30:16;96013.75;;;33.81;26.87
38225;BME280;24025;48.138;11.428;2023-08-20T11:32:48;96012.25;;;33.80;27.73
38225;BME280;24025;48.138;11.428;2023-08-20T11:35:23;96012.00;;;33.78;27.89
38225;BME280;24025;48.138;11.428;2023-08-20T11:37:55;96017.03;;;33.85;28.41
38225;BME280;24025;48.138;11.428;2023-08-20T11:40:27;96007.22;;;33.84;27.64
38225;BME280;24025;48.138;11.428;2023-08-20T11:42:59;96012.50;;;33.99;28.24
38225;BME280;24025;48.138;11.428;2023-08-20T11:45:31;96015.00;;;34.14;28.26
38225;BME280;24025;48.138;11.428;2023-08-20T11:48:03;96009.19;;;34.28;27.46
38225;BME280;24025;48.138;11.428;2023-08-20T11:50:35;96012.91;;;34.36;26.37
38225;BME280;24025;48.138;11.428;2023-08-20T11:53:09;95999.31;;;34.39;26.16
38225;BME280;24025;48.138;11.428;2023-08-20T11:55:42;96002.31;;;34.52;27.57
38225;BME280;24025;48.138;11.428;2023-08-20T11:58:14;95996.75;;;34.52;27.92
38225;BME280;24025;48.138;11.428;2023-08-20T12:00:48;96008.56;;;34.63;28.51
38225;BME280;24025;48.138;11.428;2023-08-20T12:03:21;96008.28;;;34.73;27.49
38225;BME280;24025;48.138;11.428;2023-08-20T12:05:53;96006.25;;;34.73;27.65
38225;BME280;24025;48.138;11.428;2023-08-20T12:08:25;95999.41;;;34.80;27.59
38225;BME280;24025;48.138;11.428;2023-08-20T12:10:58;95998.31;;;35.00;27.72
38225;BME280;24025;48.138;11.428;2023-08-20T12:13:30;96007.31;;;35.11;27.47
38225;BME280;24025;48.138;11.428;2023-08-20T12:16:02;95997.94;;;35.14;27.52
38225;BME280;24025;48.138;11.428;2023-08-20T12:18:34;95993.72;;;35.08;26.40
38225;BME280;24025;48.138;11.428;2023-08-20T12:21:06;95997.88;;;34.90;26.16
38225;BME280;24025;48.138;11.428;2023-08-20T12:23:39;95992.97;;;35.07;26.10
38225;BME280;24025;48.138;11.428;2023-08-20T12:26:10;95987.59;;;35.20;26.40
38225;BME280;24025;48.138;11.428;2023-08-20T12:28:42;95993.25;;;35.39;26.98
38225;BME280;24025;48.138;11.428;2023-08-20T12:31:13;95993.53;;;35.36;25.42
38225;BME280;24025;48.138;11.428;2023-08-20T12:33:45;95985.44;;;35.43;25.76
38225;BME280;24025;48.138;11.428;2023-08-20T12:36:17;95985.34;;;35.55;25.98
38225;BME280;24025;48.138;11.428;2023-08-20T12:38:49;95982.00;;;35.62;25.71
38225;BME280;24025;48.138;11.428;2023-08-20T12:41:20;95986.72;;;35.67;25.81
38225;BME280;24025;48.138;11.428;2023-08-20T12:43:52;95991.38;;;35.83;25.75
38225;BME280;24025;48.138;11.428;2023-08-20T12:46:24;95975.19;;;35.87;25.10
38225;BME280;24025;48.138;11.428;2023-08-20T12:48:56;95978.53;;;35.80;24.49
38225;BME280;24025;48.138;11.428;2023-08-20T12:51:27;95988.16;;;35.79;25.22
38225;BME280;24025;48.138;11.428;2023-08-20T12:53:59;95976.91;;;35.96;25.05
38225;BME280;24025;48.138;11.428;2023-08-20T12:56:32;95980.22;;;36.13;25.21
38225;BME280;24025;48.138;11.428;2023-08-20T12:59:04;95979.06;;;36.27;24.84
38225;BME280;24025;48.138;11.428;2023-08-20T13:01:35;95974.41;;;36.41;25.04
38225;BME280;24025;48.138;11.428;2023-08-20T13:04:08;95965.44;;;36.48;24.69
38225;BME280;24025;48.138;11.428;2023-08-20T13:06:40;95967.09;;;36.57;25.21
38225;BME280;24025;48.138;11.428;2023-08-20T13:09:14;95966.06;;;36.60;24.93
38225;BME280;24025;48.138;11.428;2023-08-20T13:11:47;95961.53;;;36.57;23.27
38225;BME280;24025;48.138;11.428;2023-08-20T13:14:19;95962.88;;;36.31;23.87
38225;BME280;24025;48.138;11.428;2023-08-20T13:16:51;95959.44;;;36.44;24.31
38225;BME280;24025;48.138;11.428;2023-08-20T13:19:23;95956.44;;;36.42;25.08
38225;BME280;24025;48.138;11.428;2023-08-20T13:21:55;95961.00;;;36.40;23.78
38225;BME280;24025;48.138;11.428;2023-08-20T13:24:27;95952.91;;;36.42;23.17